createdAt,value
2022-09-24T06:21:10.561Z,8.73
2022-09-24T06:26:05.389Z,8.33
2022-09-24T06:31:01.693Z,6.10
2022-09-24T06:45:27.171Z,6.60
2022-09-24T06:50:20.834Z,6.60
2022-09-24T07:08:41.692Z,11.20
2022-09-24T07:13:36.012Z,8.23
2022-09-24T07:30:21.048Z,6.60
2022-09-24T07:35:15.586Z,6.23
2022-09-24T07:40:10.626Z,6.50
2022-09-24T07:55:28.670Z,4.50
2022-09-24T08:00:23.997Z,4.63
2022-09-24T08:05:18.254Z,4.33
2022-09-24T08:10:11.842Z,3.23
2022-09-24T08:15:07.893Z,3.80
2022-09-24T08:20:04.067Z,3.03
2022-09-24T08:24:58.351Z,3.73
2022-09-24T08:29:52.115Z,3.40
2022-09-24T08:34:47.107Z,3.43
2022-09-24T08:39:41.376Z,3.43
2022-09-24T08:44:57.644Z,3.53
2022-09-24T08:49:58.718Z,3.80
2022-09-24T08:54:54.302Z,3.53
2022-09-24T08:59:52.893Z,2.97
2022-09-24T09:05:00.541Z,3.00
2022-09-24T09:09:58.540Z,3.10
2022-09-24T09:14:59.602Z,3.13
2022-09-24T09:20:01.786Z,2.83
2022-09-24T09:25:03.731Z,3.10
2022-09-24T09:29:59.982Z,2.83
2022-09-24T09:35:02.493Z,2.90
2022-09-24T09:40:12.495Z,3.00
2022-09-24T09:45:25.564Z,2.70
2022-09-24T09:50:28.081Z,2.70
2022-09-24T09:55:26.519Z,2.50
2022-09-24T10:00:29.143Z,2.70
2022-09-24T10:05:28.818Z,2.95
2022-09-24T10:10:26.458Z,2.45
2022-09-24T10:15:22.309Z,2.72
2022-09-24T10:20:20.753Z,2.97
2022-09-24T10:25:20.790Z,2.45
2022-09-24T10:30:36.593Z,2.58
2022-09-24T10:35:32.659Z,2.53
2022-09-24T10:40:31.806Z,2.70
2022-09-24T10:45:40.968Z,2.45
2022-09-24T10:50:44.985Z,2.85
2022-09-24T10:55:47.467Z,2.50
2022-09-24T11:00:52.492Z,2.88
2022-09-24T11:05:53.062Z,2.60
2022-09-24T11:11:01.150Z,2.67
2022-09-24T11:16:16.026Z,2.50
2022-09-24T11:21:23.212Z,2.83
2022-09-24T11:26:28.850Z,3.25
2022-09-24T11:31:36.226Z,2.60
2022-09-24T11:36:47.425Z,2.40
2022-09-24T11:41:50.823Z,2.38
2022-09-24T11:47:03.155Z,3.00
2022-09-24T11:52:07.188Z,2.42
2022-09-24T11:57:07.867Z,3.10
2022-09-24T12:02:10.015Z,2.65
2022-09-24T12:07:12.921Z,2.53
2022-09-24T12:12:12.924Z,2.30
2022-09-24T12:17:18.369Z,2.67
2022-09-24T12:22:15.975Z,2.50
2022-09-24T12:27:16.733Z,2.70
2022-09-24T12:32:38.408Z,3.00
2022-09-24T12:37:38.772Z,3.30
2022-09-24T12:42:37.283Z,2.90
2022-09-24T12:47:47.034Z,2.85
2022-09-24T12:52:42.874Z,3.10
2022-09-24T12:57:41.572Z,2.50
2022-09-24T13:02:48.658Z,2.63
2022-09-24T13:07:43.111Z,2.35
2022-09-24T13:12:36.817Z,2.20
2022-09-24T13:17:31.603Z,2.63
2022-09-24T13:22:30.153Z,4.03
2022-09-24T13:27:37.974Z,4.03
2022-09-24T13:32:36.189Z,3.42
2022-09-24T13:37:37.010Z,3.35
2022-09-24T13:42:39.091Z,2.65
2022-09-24T13:47:37.587Z,2.40
2022-09-24T13:52:36.783Z,2.42
2022-09-24T13:57:31.566Z,2.55
2022-09-24T14:02:27.310Z,2.67
2022-09-24T14:07:23.043Z,2.63
2022-09-24T14:12:22.229Z,2.60
2022-09-24T14:17:17.186Z,2.42
2022-09-24T14:22:16.755Z,2.50
2022-09-24T14:27:15.775Z,2.63
2022-09-24T14:32:23.299Z,2.40
2022-09-24T14:37:21.489Z,2.40
2022-09-24T14:42:23.682Z,2.50
2022-09-24T14:47:31.044Z,2.75
2022-09-24T14:52:31.719Z,3.00
2022-09-24T14:57:26.654Z,2.85
2022-09-24T15:02:24.391Z,3.13
2022-09-24T15:07:23.023Z,2.83
2022-09-24T15:12:21.455Z,2.88
2022-09-24T15:17:25.188Z,3.10
2022-09-24T15:22:22.870Z,2.80
2022-09-24T15:27:20.907Z,2.75
2022-09-24T15:32:17.381Z,3.00
2022-09-24T15:37:15.284Z,3.03
2022-09-24T15:42:11.275Z,2.80
2022-09-24T15:47:04.827Z,3.53
2022-09-24T15:52:03.487Z,3.33
2022-09-24T15:56:57.035Z,4.50
2022-09-24T16:01:55.140Z,4.53
2022-09-24T16:06:49.702Z,5.90
2022-09-24T16:11:43.555Z,6.10
2022-09-24T16:16:39.344Z,3.95
2022-09-24T16:21:34.567Z,4.38
2022-09-24T16:26:28.518Z,4.97
2022-09-24T16:31:23.791Z,5.13
2022-09-24T16:36:17.426Z,4.65
2022-09-24T16:41:12.668Z,6.72
2022-09-24T16:46:08.970Z,8.00
2022-09-24T16:51:06.958Z,5.90
2022-09-24T16:56:14.622Z,6.38
2022-09-24T17:01:12.539Z,7.35
2022-09-24T17:06:07.051Z,5.35
2022-09-24T17:11:00.922Z,4.40
2022-09-24T17:15:56.337Z,5.15
2022-09-24T17:20:50.009Z,5.20
2022-09-24T17:25:43.667Z,5.35
2022-09-24T17:30:38.935Z,6.00
2022-09-24T17:35:34.149Z,6.45
2022-09-24T17:40:28.204Z,7.80
2022-09-24T17:45:22.711Z,8.38
2022-09-24T17:50:16.959Z,9.38
2022-09-24T17:55:12.116Z,11.57
2022-09-24T18:00:06.785Z,13.32
2022-09-24T18:05:05.615Z,21.58
2022-09-24T18:09:59.323Z,15.05
2022-09-24T18:14:54.602Z,13.30
2022-09-24T18:19:49.509Z,18.80
2022-09-24T18:24:44.689Z,15.00
2022-09-24T18:29:40.608Z,7.85
2022-09-24T18:34:35.755Z,9.73
2022-09-24T18:39:29.455Z,9.25
2022-09-24T18:44:23.075Z,12.13
2022-09-24T18:49:17.520Z,12.70
2022-09-24T18:54:15.698Z,13.27
2022-09-24T18:59:13.573Z,11.63
2022-09-24T19:04:09.198Z,12.80
2022-09-24T19:09:02.775Z,14.17
2022-09-24T19:13:57.919Z,14.00
2022-09-24T19:18:52.131Z,13.20
2022-09-24T19:23:47.540Z,12.80
2022-09-24T19:28:42.953Z,13.37
2022-09-24T19:33:38.091Z,12.90
